createdAt,value
2023-03-10T00:02:04.539Z,38.70
2023-03-10T00:04:53.239Z,43.00
2023-03-10T00:07:41.529Z,32.57
2023-03-10T00:10:30.473Z,32.87
2023-03-10T00:13:18.053Z,37.37
2023-03-10T00:16:05.305Z,39.47
2023-03-10T00:18:53.598Z,35.20
2023-03-10T00:21:40.087Z,38.00
2023-03-10T00:24:28.416Z,34.40
2023-03-10T00:27:15.086Z,35.07
2023-03-10T00:30:02.032Z,36.10
2023-03-10T00:32:50.979Z,37.53
2023-03-10T00:35:37.668Z,35.53
2023-03-10T00:38:25.309Z,33.83
2023-03-10T00:41:15.329Z,37.53
2023-03-10T00:44:03.632Z,37.87
2023-03-10T00:46:50.840Z,39.07
2023-03-10T00:49:37.631Z,35.10
2023-03-10T00:52:25.427Z,39.43
2023-03-10T00:55:13.750Z,40.10
2023-03-10T00:58:01.721Z,33.70
2023-03-10T01:00:48.312Z,41.47
2023-03-10T01:03:35.094Z,35.23
2023-03-10T01:06:23.004Z,30.20
2023-03-10T01:09:09.748Z,37.40
2023-03-10T01:11:56.359Z,32.13
2023-03-10T01:14:44.654Z,29.57
2023-03-10T01:17:31.649Z,27.93
2023-03-10T01:20:19.103Z,38.27
2023-03-10T01:23:05.971Z,33.70
2023-03-10T01:25:53.810Z,39.47
2023-03-10T01:28:40.804Z,40.30
2023-03-10T01:31:28.893Z,33.13
2023-03-10T01:34:16.404Z,30.50
2023-03-10T01:37:03.110Z,32.90
2023-03-10T01:39:49.974Z,36.60
2023-03-10T01:42:36.853Z,33.57
2023-03-10T01:46:00.522Z,35.30
2023-03-10T01:48:49.837Z,35.63
2023-03-10T01:51:38.563Z,32.10
2023-03-10T01:54:30.137Z,41.50
2023-03-10T01:57:20.085Z,35.23
2023-03-10T02:00:12.350Z,35.67
2023-03-10T02:03:08.713Z,39.33
2023-03-10T02:05:59.705Z,31.20
2023-03-10T02:08:50.184Z,33.27
2023-03-10T02:11:39.616Z,34.30
2023-03-10T02:14:26.878Z,36.13
2023-03-10T02:17:17.222Z,28.90
2023-03-10T02:20:20.455Z,28.77
2023-03-10T02:23:08.893Z,29.50
2023-03-10T02:26:01.019Z,31.80
2023-03-10T02:28:51.446Z,29.30
2023-03-10T02:31:38.867Z,26.30
2023-03-10T02:34:26.616Z,26.20
2023-03-10T02:37:21.844Z,30.13
2023-03-10T02:40:32.158Z,27.47
2023-03-10T02:43:26.554Z,25.83
2023-03-10T02:46:20.205Z,29.67
2023-03-10T02:49:10.503Z,23.47
2023-03-10T02:52:04.062Z,21.33
2023-03-10T02:54:50.730Z,26.53
2023-03-10T02:57:37.623Z,28.23
2023-03-10T03:00:24.572Z,26.93
2023-03-10T03:03:14.232Z,30.30
2023-03-10T03:06:01.502Z,24.63
2023-03-10T03:08:48.567Z,20.73
2023-03-10T03:11:37.802Z,26.33
2023-03-10T03:14:27.611Z,20.20
2023-03-10T03:17:14.309Z,21.57
2023-03-10T03:20:11.789Z,20.13
2023-03-10T03:23:00.208Z,20.93
2023-03-10T03:25:47.609Z,20.43
2023-03-10T03:28:38.216Z,17.67
2023-03-10T03:31:26.566Z,18.43
2023-03-10T03:34:28.134Z,13.53
2023-03-10T03:37:19.352Z,16.37
2023-03-10T03:40:12.828Z,17.37
2023-03-10T03:43:01.632Z,13.33
2023-03-10T03:45:48.568Z,15.17
2023-03-10T03:48:36.009Z,14.23
2023-03-10T03:51:26.218Z,10.23
2023-03-10T03:54:14.436Z,14.70
2023-03-10T03:57:01.500Z,13.77
2023-03-10T03:59:49.039Z,11.90
2023-03-10T04:02:36.586Z,11.83
2023-03-10T04:05:23.712Z,16.00
2023-03-10T04:08:10.508Z,18.27
2023-03-10T04:10:58.665Z,13.20
2023-03-10T04:13:48.484Z,13.00
2023-03-10T04:16:35.818Z,9.93
2023-03-10T04:19:24.240Z,12.73
2023-03-10T04:22:16.138Z,12.37
2023-03-10T04:25:06.110Z,15.70
2023-03-10T04:27:55.959Z,13.90
2023-03-10T04:30:43.681Z,11.70
2023-03-10T04:33:32.259Z,14.93
2023-03-10T04:36:19.859Z,11.57
2023-03-10T04:39:10.186Z,13.60
2023-03-10T04:41:56.581Z,8.63
2023-03-10T04:44:44.619Z,8.50
2023-03-10T04:47:31.577Z,12.33
2023-03-10T04:50:19.943Z,12.33
2023-03-10T04:53:08.361Z,12.00
2023-03-10T04:55:55.002Z,11.03
2023-03-10T04:58:42.432Z,16.30
2023-03-10T05:01:34.410Z,11.27
2023-03-10T05:04:24.499Z,10.80
2023-03-10T05:07:12.870Z,14.70
2023-03-10T05:10:06.935Z,14.07
2023-03-10T05:12:53.493Z,10.43
2023-03-10T05:15:40.886Z,11.10
2023-03-10T05:18:29.118Z,11.30
2023-03-10T05:21:17.529Z,13.50
2023-03-10T05:24:06.189Z,11.23
2023-03-10T05:26:53.633Z,9.60
2023-03-10T05:29:40.871Z,13.10
2023-03-10T05:32:35.864Z,7.73
2023-03-10T05:35:24.220Z,8.50
2023-03-10T05:38:11.833Z,11.43
2023-03-10T05:40:59.232Z,11.77
2023-03-10T05:43:46.054Z,11.73
2023-03-10T05:46:35.335Z,9.70
2023-03-10T05:49:22.604Z,10.67
2023-03-10T05:52:10.624Z,7.97
2023-03-10T05:54:59.580Z,9.30
2023-03-10T05:57:47.397Z,10.70
2023-03-10T06:00:34.135Z,12.00
2023-03-10T06:03:23.342Z,11.27
2023-03-10T06:06:10.392Z,12.30
2023-03-10T06:08:58.542Z,9.20
2023-03-10T06:11:45.273Z,11.63
2023-03-10T06:14:31.989Z,12.67
2023-03-10T06:17:19.851Z,11.33
2023-03-10T06:20:07.264Z,13.60
2023-03-10T06:22:54.292Z,13.30
2023-03-10T06:25:42.857Z,11.00
2023-03-10T06:28:33.128Z,11.67
2023-03-10T06:31:22.271Z,12.97
2023-03-10T06:34:08.994Z,10.17
2023-03-10T06:36:56.361Z,11.30
2023-03-10T06:39:43.094Z,11.53
2023-03-10T06:42:33.133Z,13.27
2023-03-10T06:45:19.939Z,9.47
2023-03-10T06:48:06.952Z,9.93
2023-03-10T06:50:59.209Z,9.27
2023-03-10T06:53:46.612Z,7.33
2023-03-10T06:56:33.314Z,13.87
2023-03-10T06:59:21.591Z,9.90
2023-03-10T07:02:09.208Z,15.13
2023-03-10T07:04:56.055Z,8.43
2023-03-10T07:07:42.666Z,13.37
2023-03-10T07:10:29.557Z,10.63
2023-03-10T07:13:17.412Z,11.07
2023-03-10T07:16:06.604Z,9.10
2023-03-10T07:18:52.991Z,10.07
2023-03-10T07:21:39.895Z,9.60
2023-03-10T07:24:26.312Z,9.40
2023-03-10T07:27:13.040Z,9.97
2023-03-10T07:30:00.000Z,7.20
2023-03-10T07:32:48.279Z,7.40
2023-03-10T07:35:36.761Z,9.30
2023-03-10T07:38:23.557Z,11.37
2023-03-10T07:41:12.535Z,12.33
2023-03-10T07:43:59.481Z,8.17
2023-03-10T07:46:46.178Z,9.77
2023-03-10T07:49:34.543Z,10.83
2023-03-10T07:52:21.514Z,7.40
2023-03-10T07:55:09.125Z,9.13
2023-03-10T07:57:56.881Z,12.87
2023-03-10T08:00:43.533Z,9.47
2023-03-10T08:03:30.472Z,11.47
2023-03-10T08:06:23.350Z,10.17
2023-03-10T08:09:09.823Z,7.07
2023-03-10T08:11:56.980Z,9.90
2023-03-10T08:14:43.471Z,10.47
2023-03-10T08:17:31.255Z,9.73
2023-03-10T08:20:18.642Z,12.73
2023-03-10T08:23:06.519Z,11.80
2023-03-10T08:25:53.608Z,10.50
2023-03-10T08:28:40.129Z,9.33
2023-03-10T08:31:27.004Z,8.00
2023-03-10T08:34:14.105Z,9.67
2023-03-10T08:37:01.039Z,9.97
2023-03-10T08:39:50.139Z,6.97
2023-03-10T08:42:37.157Z,9.17
2023-03-10T08:45:23.699Z,8.63
2023-03-10T08:48:10.433Z,12.20
2023-03-10T08:50:57.883Z,13.40
2023-03-10T08:53:46.756Z,12.23
2023-03-10T08:56:34.836Z,8.10
2023-03-10T08:59:21.578Z,8.40
2023-03-10T09:02:19.479Z,9.13
2023-03-10T09:05:07.050Z,13.03
2023-03-10T09:07:53.961Z,7.90
2023-03-10T09:10:45.594Z,7.07
2023-03-10T09:13:34.222Z,10.20
2023-03-10T09:16:21.480Z,8.23
2023-03-10T09:19:08.926Z,7.60
2023-03-10T09:21:57.636Z,7.37
2023-03-10T09:24:44.331Z,8.33
2023-03-10T09:27:31.018Z,7.63
2023-03-10T09:30:19.448Z,4.77
2023-03-10T09:33:07.752Z,5.83
2023-03-10T09:36:05.923Z,7.17
2023-03-10T09:38:53.503Z,4.97
2023-03-10T09:41:58.192Z,7.70
2023-03-10T09:44:56.996Z,6.53
2023-03-10T09:47:54.324Z,8.00
2023-03-10T09:50:44.747Z,7.30
2023-03-10T09:53:49.796Z,7.53
2023-03-10T09:56:37.941Z,6.47
2023-03-10T09:59:32.251Z,10.03
2023-03-10T10:02:23.432Z,8.77
2023-03-10T10:05:18.849Z,8.10
2023-03-10T10:08:19.416Z,7.57
2023-03-10T10:11:07.026Z,8.00
2023-03-10T10:14:08.113Z,6.10
2023-03-10T10:17:06.914Z,7.50
2023-03-10T10:19:54.846Z,5.40
2023-03-10T10:22:45.583Z,8.73
2023-03-10T10:25:33.131Z,7.93
2023-03-10T10:28:24.857Z,9.60
2023-03-10T10:31:17.643Z,7.30
2023-03-10T10:34:06.258Z,9.77
2023-03-10T10:36:56.021Z,10.07
2023-03-10T10:39:44.649Z,6.70
2023-03-10T10:42:33.562Z,6.67
2023-03-10T10:45:28.566Z,9.53
2023-03-10T10:48:34.326Z,9.10
2023-03-10T10:51:24.629Z,5.90
2023-03-10T10:54:28.365Z,10.27
2023-03-10T10:57:21.244Z,9.13
2023-03-10T11:00:19.106Z,6.97
2023-03-10T11:03:21.232Z,11.00
2023-03-10T11:06:16.107Z,8.63
2023-03-10T11:09:08.293Z,7.30
2023-03-10T11:12:04.259Z,8.00
2023-03-10T11:15:12.465Z,8.23
2023-03-10T11:18:06.989Z,6.40
2023-03-10T11:21:01.590Z,10.90
2023-03-10T11:23:55.761Z,8.00
2023-03-10T11:26:52.604Z,10.20
2023-03-10T11:29:53.086Z,9.53
2023-03-10T11:32:54.850Z,9.73
2023-03-10T11:35:45.986Z,7.57
2023-03-10T11:38:39.211Z,11.63
2023-03-10T11:41:29.179Z,11.83
2023-03-10T11:44:26.795Z,6.37
2023-03-10T11:47:21.469Z,9.00
2023-03-10T11:50:21.951Z,7.80
2023-03-10T11:53:15.231Z,10.20
2023-03-10T11:56:03.618Z,8.70
2023-03-10T11:58:54.721Z,9.17
2023-03-10T12:01:47.420Z,8.83
2023-03-10T12:04:39.804Z,10.87
2023-03-10T12:07:31.254Z,9.37
2023-03-10T12:10:19.848Z,11.23
2023-03-10T12:13:06.870Z,12.93
2023-03-10T12:15:57.717Z,10.53
2023-03-10T12:18:44.291Z,14.27
2023-03-10T12:21:32.330Z,10.40
2023-03-10T12:24:44.732Z,10.67
2023-03-10T12:27:31.031Z,11.40
2023-03-10T12:30:45.744Z,11.67
2023-03-10T12:33:42.287Z,12.43
2023-03-10T12:36:39.562Z,9.97
2023-03-10T12:39:41.798Z,10.67
2023-03-10T12:42:32.203Z,9.40
2023-03-10T12:45:28.540Z,12.03
2023-03-10T12:48:19.976Z,13.27
2023-03-10T12:51:14.168Z,11.73
2023-03-10T12:54:07.777Z,12.33
2023-03-10T12:57:04.718Z,16.07
2023-03-10T13:00:01.068Z,14.33
2023-03-10T13:02:52.025Z,12.50
2023-03-10T13:05:42.210Z,13.27
2023-03-10T13:08:36.140Z,14.73
2023-03-10T13:11:37.053Z,13.27
2023-03-10T13:14:24.396Z,18.00
2023-03-10T13:17:23.064Z,13.27
2023-03-10T13:20:17.397Z,13.37
2023-03-10T13:23:04.308Z,22.13
2023-03-10T13:25:55.955Z,17.83
2023-03-10T13:28:52.372Z,19.00
2023-03-10T13:31:39.297Z,16.20
2023-03-10T13:34:31.054Z,18.33
2023-03-10T13:37:17.806Z,17.70
2023-03-10T13:40:10.301Z,16.90
2023-03-10T13:42:57.989Z,16.07
2023-03-10T13:45:45.400Z,15.93
2023-03-10T13:48:33.462Z,17.47
2023-03-10T13:51:23.871Z,18.80
2023-03-10T13:54:20.677Z,18.30
2023-03-10T13:57:14.030Z,18.07
2023-03-10T14:00:05.907Z,23.27
2023-03-10T14:02:59.447Z,19.37
2023-03-10T14:05:47.873Z,24.63
2023-03-10T14:08:36.020Z,15.80
2023-03-10T14:11:33.917Z,19.90
2023-03-10T14:14:29.422Z,22.20
2023-03-10T14:17:35.239Z,29.00
2023-03-10T14:20:29.626Z,24.00
2023-03-10T14:23:29.232Z,19.87
2023-03-10T14:26:18.454Z,23.23
2023-03-10T14:29:11.642Z,24.07
2023-03-10T14:31:57.966Z,18.70
2023-03-10T14:34:44.986Z,21.87
2023-03-10T14:37:31.937Z,19.40
2023-03-10T14:40:20.813Z,17.23
2023-03-10T14:43:15.285Z,28.10
2023-03-10T14:46:03.222Z,20.17
2023-03-10T14:48:50.276Z,19.60
2023-03-10T14:51:37.123Z,28.83
2023-03-10T14:54:25.529Z,24.80
2023-03-10T14:57:15.909Z,21.80
2023-03-10T15:00:06.625Z,19.00
2023-03-10T15:02:53.334Z,21.13
2023-03-10T15:05:48.210Z,17.03
2023-03-10T15:08:35.623Z,22.90
2023-03-10T15:11:35.921Z,16.90
2023-03-10T15:14:23.316Z,21.33
2023-03-10T15:17:14.815Z,19.57
2023-03-10T15:20:08.710Z,23.10
2023-03-10T15:22:56.173Z,23.93
2023-03-10T15:25:45.304Z,26.47
2023-03-10T15:28:32.536Z,33.87
2023-03-10T15:31:23.248Z,26.43
2023-03-10T15:34:11.522Z,21.60
2023-03-10T15:36:58.341Z,29.83
2023-03-10T15:39:45.012Z,17.37
2023-03-10T15:42:31.659Z,22.43
2023-03-10T15:45:19.381Z,27.63
2023-03-10T15:48:06.578Z,29.13
2023-03-10T15:50:54.707Z,36.17
2023-03-10T15:53:41.495Z,32.73
2023-03-10T15:56:28.327Z,33.93
2023-03-10T15:59:15.120Z,31.13
2023-03-10T16:02:02.176Z,31.57
2023-03-10T16:04:49.326Z,26.70
2023-03-10T16:07:38.859Z,27.63
2023-03-10T16:10:26.078Z,24.53
2023-03-10T16:13:13.828Z,22.20
2023-03-10T16:16:05.976Z,21.27
2023-03-10T16:18:52.950Z,23.90
2023-03-10T16:21:39.560Z,22.17
2023-03-10T16:24:27.669Z,25.10
2023-03-10T16:27:14.718Z,21.87
2023-03-10T16:30:01.640Z,24.47
2023-03-10T16:32:49.258Z,27.57
2023-03-10T16:35:35.686Z,26.07
2023-03-10T16:38:22.654Z,26.90
2023-03-10T16:41:11.641Z,24.20
2023-03-10T16:43:58.359Z,21.90
2023-03-10T16:46:45.097Z,21.57
2023-03-10T16:49:32.809Z,22.57
2023-03-10T16:52:19.501Z,25.13
2023-03-10T16:55:08.853Z,24.43
2023-03-10T16:57:57.765Z,27.07
2023-03-10T17:00:44.274Z,32.00
2023-03-10T17:03:31.016Z,28.33
2023-03-10T17:06:22.700Z,30.40
2023-03-10T17:09:11.133Z,34.07
2023-03-10T17:11:57.853Z,33.03
2023-03-10T17:14:46.017Z,27.40
2023-03-10T17:17:33.470Z,34.20
2023-03-10T17:20:20.187Z,31.40
2023-03-10T17:23:12.708Z,34.67
2023-03-10T17:26:02.969Z,30.37
2023-03-10T17:28:54.799Z,32.00
2023-03-10T17:31:57.991Z,36.07
2023-03-10T17:34:53.800Z,38.73
2023-03-10T17:37:47.030Z,30.43
2023-03-10T17:40:43.781Z,40.63
2023-03-10T17:43:34.482Z,37.50
2023-03-10T17:46:24.228Z,36.80
2023-03-10T17:49:13.506Z,34.70
2023-03-10T17:52:00.181Z,44.27
2023-03-10T17:54:46.857Z,34.00
2023-03-10T17:57:33.720Z,33.50
2023-03-10T18:00:22.410Z,39.57
2023-03-10T18:03:09.475Z,37.03
2023-03-10T18:05:57.938Z,41.93
2023-03-10T18:08:44.684Z,41.20
2023-03-10T18:11:32.359Z,42.40
2023-03-10T18:14:18.757Z,47.83
2023-03-10T18:17:05.671Z,38.00
2023-03-10T18:19:53.447Z,39.17
2023-03-10T18:22:41.407Z,41.63
2023-03-10T18:25:28.238Z,36.73
2023-03-10T18:28:19.274Z,38.47
2023-03-10T18:31:08.231Z,40.70
2023-03-10T18:33:54.918Z,36.93
2023-03-10T18:36:41.666Z,31.10
2023-03-10T18:39:30.053Z,34.77
2023-03-10T18:42:16.515Z,38.50
2023-03-10T18:45:03.380Z,38.97
2023-03-10T18:47:50.345Z,33.13
2023-03-10T18:50:36.906Z,37.17
2023-03-10T18:53:24.417Z,28.73
2023-03-10T18:56:12.556Z,38.33
2023-03-10T18:58:59.146Z,32.07
2023-03-10T19:01:46.030Z,26.27
2023-03-10T19:04:32.884Z,30.77
2023-03-10T19:07:21.358Z,35.10
2023-03-10T19:10:09.207Z,22.60
2023-03-10T19:12:57.669Z,29.73
2023-03-10T19:15:44.405Z,29.93
2023-03-10T19:18:31.185Z,32.33
2023-03-10T19:21:17.946Z,31.13
2023-03-10T19:24:05.001Z,26.63
2023-03-10T19:26:51.633Z,32.03
2023-03-10T19:29:39.624Z,29.13
2023-03-10T19:32:28.525Z,33.40
2023-03-10T19:35:16.189Z,26.37
2023-03-10T19:38:02.753Z,31.63
2023-03-10T19:40:49.400Z,27.77
2023-03-10T19:43:37.586Z,24.87
2023-03-10T19:46:25.647Z,31.00
2023-03-10T19:49:12.352Z,27.77
2023-03-10T19:51:59.176Z,27.43
2023-03-10T19:54:46.119Z,22.60
2023-03-10T19:57:32.832Z,31.30
2023-03-10T20:00:24.995Z,29.23
2023-03-10T20:03:13.863Z,32.73
2023-03-10T20:06:01.485Z,33.43
2023-03-10T20:08:48.718Z,34.80
2023-03-10T20:11:35.398Z,27.30
2023-03-10T20:14:21.888Z,32.37
2023-03-10T20:17:09.255Z,29.90
2023-03-10T20:19:57.432Z,28.80
2023-03-10T20:22:46.390Z,33.17
2023-03-10T20:25:33.139Z,30.40
2023-03-10T20:28:20.123Z,32.07
2023-03-10T20:31:06.996Z,29.73
2023-03-10T20:33:53.924Z,27.40
2023-03-10T20:36:41.725Z,30.80
2023-03-10T20:39:28.492Z,35.73
2023-03-10T20:42:15.216Z,25.40
2023-03-10T20:45:02.625Z,28.60
2023-03-10T20:47:49.795Z,27.10
2023-03-10T20:50:36.904Z,26.23
2023-03-10T20:53:25.017Z,32.17
2023-03-10T20:56:14.332Z,35.90
2023-03-10T20:59:01.916Z,34.23
2023-03-10T21:01:48.727Z,33.20
2023-03-10T21:04:35.326Z,38.13
2023-03-10T21:07:22.014Z,32.60
2023-03-10T21:10:13.369Z,33.50
2023-03-10T21:13:00.039Z,33.60
2023-03-10T21:15:46.947Z,40.60
2023-03-10T21:18:34.166Z,38.00
2023-03-10T21:21:20.592Z,39.47
2023-03-10T21:24:07.557Z,40.33
2023-03-10T21:26:55.882Z,35.03
2023-03-10T21:29:43.198Z,32.27
2023-03-10T21:32:29.805Z,44.57
2023-03-10T21:35:17.838Z,37.50
2023-03-10T21:38:04.389Z,37.00
2023-03-10T21:40:51.072Z,45.50
2023-03-10T21:43:39.283Z,39.33
2023-03-10T21:46:27.334Z,32.00
2023-03-10T21:49:13.792Z,34.43
2023-03-10T21:52:00.589Z,29.47
2023-03-10T21:54:47.587Z,35.87
2023-03-10T21:57:34.168Z,37.43
2023-03-10T22:00:24.378Z,29.10
2023-03-10T22:03:10.857Z,36.20
2023-03-10T22:05:59.666Z,35.10
2023-03-10T22:08:46.310Z,34.87
2023-03-10T22:11:36.044Z,34.13
2023-03-10T22:14:25.403Z,32.53
2023-03-10T22:17:14.044Z,28.33
2023-03-10T22:20:01.844Z,32.83
2023-03-10T22:22:48.720Z,30.37
2023-03-10T22:25:35.806Z,31.63
2023-03-10T22:28:22.335Z,35.57
2023-03-10T22:31:09.955Z,32.33
2023-03-10T22:33:57.783Z,30.47
2023-03-10T22:36:44.460Z,29.70
2023-03-10T22:39:31.060Z,38.23
2023-03-10T22:42:17.728Z,29.23
2023-03-10T22:45:06.105Z,32.40
2023-03-10T22:47:55.220Z,26.83
2023-03-10T22:50:46.757Z,31.30
2023-03-10T22:53:33.324Z,30.87
2023-03-10T22:56:21.070Z,31.97
2023-03-10T22:59:08.327Z,31.13
2023-03-10T23:01:55.080Z,34.13
2023-03-10T23:04:43.050Z,37.17
2023-03-10T23:07:31.016Z,26.97
2023-03-10T23:10:19.716Z,33.50
2023-03-10T23:13:08.522Z,22.47
2023-03-10T23:15:55.445Z,31.50
2023-03-10T23:18:42.235Z,37.13
2023-03-10T23:21:29.023Z,33.03
2023-03-10T23:24:17.166Z,37.30
2023-03-10T23:27:03.935Z,28.83
2023-03-10T23:29:50.781Z,28.20
2023-03-10T23:32:37.508Z,37.50
2023-03-10T23:35:27.079Z,23.67
2023-03-10T23:38:14.077Z,28.80
2023-03-10T23:41:02.006Z,35.67
2023-03-10T23:43:48.646Z,32.67
2023-03-10T23:46:35.508Z,30.67
2023-03-10T23:49:23.559Z,31.37
2023-03-10T23:52:09.965Z,24.57
2023-03-10T23:54:56.760Z,30.33
2023-03-10T23:57:44.870Z,29.97
